Time;durP1;ratioP1;P1;durP2;ratioP2;P2;SDS_P1;SDS_P2;PMS_P1;PMS_P2;Temp;Humidity;BMP_temperature;BMP_pressure;BME280_temperature;BME280_humidity;BME280_pressure;Samples;Min_cycle;Max_cycle;Signal;HPM_P1;HPM_P2
2022/08/14 00:03:32;;;;;;;3.83;3.63;;;21.90;59.20;;;;;;10578203;28;20311;-78
2022/08/14 00:08:34;;;;;;;4.00;3.73;;;21.90;58.80;;;;;;10572970;28;20199;-80
2022/08/14 00:13:37;;;;;;;4.70;4.40;;;21.80;59.00;;;;;;10589279;28;20216;-80
2022/08/14 00:18:40;;;;;;;4.23;3.90;;;21.80;58.60;;;;;;10594194;28;20279;-78
2022/08/14 00:23:42;;;;;;;4.60;3.80;;;21.70;59.60;;;;;;10557609;28;20231;-78
2022/08/14 00:28:45;;;;;;;5.23;4.30;;;21.70;59.60;;;;;;10567242;28;20199;-78
2022/08/14 00:33:47;;;;;;;3.73;3.53;;;21.70;60.10;;;;;;10571596;28;20222;-78
2022/08/14 00:38:49;;;;;;;4.10;3.90;;;21.70;60.30;;;;;;10575994;28;20260;-79
2022/08/14 00:43:53;;;;;;;3.87;3.57;;;21.70;58.90;;;;;;10585983;28;20250;-78
2022/08/14 00:48:55;;;;;;;3.87;3.67;;;21.70;59.50;;;;;;10586610;28;20214;-79
2022/08/14 00:53:57;;;;;;;4.33;4.03;;;21.60;60.50;;;;;;10554944;28;20222;-78
2022/08/14 00:59:00;;;;;;;4.17;3.97;;;21.60;61.20;;;;;;10572040;28;20255;-78
2022/08/14 01:04:04;;;;;;;4.27;3.97;;;21.50;59.90;;;;;;10556555;28;20222;-78
2022/08/14 01:09:06;;;;;;;5.03;4.63;;;21.50;59.70;;;;;;10555804;28;20191;-78
2022/08/14 01:14:10;;;;;;;3.73;3.53;;;21.40;59.50;;;;;;10556299;28;20254;-78
2022/08/14 01:24:35;;;;;;;4.10;3.90;;;21.30;59.80;;;;;;10583927;28;20702;-78
2022/08/14 01:29:37;;;;;;;4.77;4.27;;;21.20;59.80;;;;;;10579614;28;20195;-78
2022/08/14 01:34:39;;;;;;;4.07;3.87;;;21.10;61.20;;;;;;10581996;28;20231;-78
2022/08/14 01:39:43;;;;;;;4.33;4.13;;;21.10;62.50;;;;;;10565629;28;20302;-78
2022/08/14 01:44:47;;;;;;;4.77;4.20;;;21.10;62.00;;;;;;10585229;28;20220;-78
2022/08/14 01:49:50;;;;;;;4.50;4.20;;;21.10;60.70;;;;;;10570179;28;20199;-78
2022/08/14 01:54:54;;;;;;;4.63;3.90;;;21.10;60.60;;;;;;10563404;28;20212;-78
2022/08/14 01:59:57;;;;;;;4.20;4.00;;;21.00;62.10;;;;;;10542303;28;20578;-78
2022/08/14 02:04:59;;;;;;;4.13;3.83;;;20.90;60.70;;;;;;10575150;28;20695;-78
2022/08/14 02:10:03;;;;;;;4.60;4.17;;;20.80;62.20;;;;;;10577387;28;20196;-78
2022/08/14 02:15:07;;;;;;;4.00;3.80;;;20.80;63.10;;;;;;10577629;28;20219;-78
2022/08/14 02:20:11;;;;;;;3.80;3.60;;;20.80;63.20;;;;;;10560835;28;20223;-78
2022/08/14 02:25:14;;;;;;;4.07;3.87;;;20.80;62.30;;;;;;10566443;28;20243;-78
2022/08/14 02:30:16;;;;;;;4.50;4.10;;;20.80;62.00;;;;;;10563385;28;20296;-78
2022/08/14 02:35:19;;;;;;;3.97;3.50;;;20.80;62.20;;;;;;10549678;28;20295;-78
2022/08/14 02:40:22;;;;;;;4.40;4.10;;;20.70;62.50;;;;;;10550955;28;20216;-77
2022/08/14 02:45:27;;;;;;;3.90;3.70;;;20.60;63.50;;;;;;10576613;28;20234;-78
2022/08/14 02:50:29;;;;;;;4.27;4.07;;;20.60;62.90;;;;;;10561442;28;20340;-78
2022/08/14 02:55:33;;;;;;;3.70;3.50;;;20.60;63.30;;;;;;10555032;28;20698;-78
2022/08/14 03:00:36;;;;;;;4.73;4.53;;;20.60;63.60;;;;;;10578117;28;20632;-78
2022/08/14 03:05:39;;;;;;;3.90;3.70;;;20.60;64.00;;;;;;10574631;28;20229;-78
2022/08/14 03:10:42;;;;;;;4.97;4.40;;;20.50;62.70;;;;;;10542843;28;20244;-78
2022/08/14 03:15:47;;;;;;;4.10;3.90;;;20.50;63.00;;;;;;10528705;28;20650;-78
2022/08/14 03:20:49;;;;;;;4.93;3.83;;;20.50;62.40;;;;;;10542428;28;20215;-78
2022/08/14 03:25:52;;;;;;;4.40;4.10;;;20.40;63.00;;;;;;10550619;28;20233;-78
2022/08/14 03:30:56;;;;;;;3.97;3.77;;;20.30;63.80;;;;;;10555504;28;20223;-78
2022/08/14 03:36:00;;;;;;;4.30;4.07;;;20.30;64.40;;;;;;10576637;28;20225;-78
2022/08/14 03:41:09;;;;;;;4.00;3.80;;;20.30;64.20;;;;;;10577171;28;20484;-78
2022/08/14 03:46:12;;;;;;;5.73;4.00;;;20.30;63.60;;;;;;10561887;28;20227;-78
2022/08/14 03:51:15;;;;;;;4.10;3.90;;;20.30;64.60;;;;;;10538844;28;20194;-78
2022/08/14 03:56:19;;;;;;;4.20;4.00;;;20.20;65.60;;;;;;10543080;28;20293;-78
2022/08/14 04:01:23;;;;;;;4.83;4.37;;;20.20;64.00;;;;;;10570726;28;20215;-79
2022/08/14 04:06:25;;;;;;;4.50;4.20;;;20.20;64.00;;;;;;10556810;28;20246;-79
2022/08/14 04:11:29;;;;;;;3.93;3.73;;;20.20;63.40;;;;;;10556692;28;20251;-79
2022/08/14 04:16:31;;;;;;;4.30;4.10;;;20.10;64.80;;;;;;10567334;28;20220;-77
2022/08/14 04:21:33;;;;;;;5.27;4.77;;;20.00;64.40;;;;;;10551299;28;20336;-78
2022/08/14 04:26:36;;;;;;;4.70;4.40;;;20.00;65.00;;;;;;10572029;28;20337;-78
2022/08/14 04:31:39;;;;;;;3.80;3.60;;;20.00;64.00;;;;;;10576974;28;20195;-78
2022/08/14 04:52:37;;;;;;;4.07;3.87;;;20.00;65.80;;;;;;10593508;28;20191;-80
2022/08/14 04:57:41;;;;;;;4.60;4.17;;;20.10;65.10;;;;;;10584256;28;20233;-79
2022/08/14 05:02:43;;;;;;;4.33;4.13;;;20.10;66.80;;;;;;10593215;28;20624;-80
2022/08/14 05:07:45;;;;;;;4.13;3.90;;;20.10;65.80;;;;;;10584837;28;20278;-79
2022/08/14 05:12:50;;;;;;;4.20;4.00;;;20.20;65.00;;;;;;10585419;28;20215;-78
2022/08/14 05:17:55;;;;;;;3.93;3.73;;;20.30;65.10;;;;;;10587883;28;20200;-80
2022/08/14 05:22:59;;;;;;;4.40;4.20;;;20.30;66.40;;;;;;10589108;28;20287;-80
2022/08/14 05:28:11;;;;;;;5.00;4.70;;;20.30;66.00;;;;;;10583565;28;20209;-80
2022/08/14 05:33:15;;;;;;;4.70;4.50;;;20.40;66.60;;;;;;10566325;28;20222;-79
2022/08/14 05:38:19;;;;;;;5.40;5.00;;;20.40;65.40;;;;;;10587535;28;20210;-80
2022/08/14 05:43:23;;;;;;;4.30;4.10;;;20.50;66.10;;;;;;10571467;28;20227;-80
2022/08/14 05:48:26;;;;;;;4.30;4.10;;;20.60;66.60;;;;;;10605987;28;20188;-79
2022/08/14 05:53:28;;;;;;;6.23;4.60;;;20.60;65.70;;;;;;10578575;28;20223;-79
2022/08/14 05:58:32;;;;;;;5.13;4.83;;;20.70;67.00;;;;;;10566077;28;20282;-79
2022/08/14 06:03:34;;;;;;;5.00;4.70;;;20.80;66.80;;;;;;10589558;28;20706;-79
2022/08/14 06:08:36;;;;;;;5.07;4.77;;;20.80;66.30;;;;;;10576627;28;20207;-79
2022/08/14 06:13:41;;;;;;;4.57;4.37;;;20.90;65.10;;;;;;10598373;28;20221;-79
2022/08/14 06:18:46;;;;;;;5.03;4.70;;;21.00;65.70;;;;;;10590132;28;20294;-79
2022/08/14 06:23:48;;;;;;;4.90;4.60;;;21.00;64.00;;;;;;10586378;28;20220;-80
2022/08/14 06:28:51;;;;;;;4.83;4.53;;;21.10;65.40;;;;;;10568711;28;20218;-79
2022/08/14 06:33:53;;;;;;;4.77;4.47;;;21.20;64.30;;;;;;10597719;28;20309;-80
2022/08/14 06:38:55;;;;;;;4.83;4.53;;;21.30;65.40;;;;;;10581574;28;20215;-79
2022/08/14 06:43:59;;;;;;;5.53;4.70;;;21.30;64.20;;;;;;10572455;28;20211;-79
2022/08/14 06:49:01;;;;;;;4.90;4.50;;;21.40;65.50;;;;;;10574836;28;20199;-79
2022/08/14 06:54:03;;;;;;;7.13;5.33;;;21.50;65.80;;;;;;10582529;28;20228;-79
2022/08/14 06:59:07;;;;;;;4.20;3.90;;;21.60;65.90;;;;;;10572995;28;20215;-78
2022/08/14 07:09:29;;;;;;;5.27;4.97;;;21.80;66.40;;;;;;10591124;28;20643;-80
2022/08/14 07:14:32;;;;;;;5.27;4.83;;;22.00;67.00;;;;;;10582832;28;20235;-78
2022/08/14 07:19:34;;;;;;;5.30;5.00;;;22.10;65.70;;;;;;10580944;28;20301;-78
2022/08/14 07:24:36;;;;;;;5.47;5.17;;;22.20;67.10;;;;;;10579731;28;20242;-78
2022/08/14 07:29:39;;;;;;;5.57;4.70;;;22.30;64.80;;;;;;10576277;28;20230;-77
2022/08/14 07:34:42;;;;;;;5.30;4.80;;;22.40;63.40;;;;;;10574827;28;20227;-76
2022/08/14 07:39:44;;;;;;;5.10;4.70;;;22.70;62.00;;;;;;10575144;28;20199;-77
2022/08/14 07:44:47;;;;;;;4.70;4.40;;;23.20;60.10;;;;;;10569982;28;20257;-77
2022/08/14 07:49:58;;;;;;;4.70;4.50;;;23.70;60.60;;;;;;10537831;28;20204;-77
2022/08/14 07:55:01;;;;;;;4.60;4.40;;;24.10;59.50;;;;;;10557973;28;20574;-78
2022/08/14 08:00:08;;;;;;;4.40;4.20;;;24.60;58.50;;;;;;10570806;28;20232;-77
2022/08/14 08:05:16;;;;;;;4.93;4.63;;;25.00;58.60;;;;;;10574183;28;20686;-77
2022/08/14 08:10:33;;;;;;;4.80;4.37;;;25.30;55.20;;;;;;10569202;28;20276;-77
2022/08/14 08:15:40;;;;;;;5.40;3.47;;;25.60;53.90;;;;;;10566985;28;20219;-77
2022/08/14 08:20:44;;;;;;;4.10;3.90;;;26.00;53.90;;;;;;10533245;28;20195;-77
2022/08/14 08:25:49;;;;;;;4.43;4.23;;;26.20;52.70;;;;;;10540800;28;20280;-78
2022/08/14 08:30:56;;;;;;;3.90;3.60;;;26.40;53.40;;;;;;10542962;28;20195;-78
2022/08/14 08:35:59;;;;;;;3.90;3.60;;;26.70;52.40;;;;;;10540513;28;20247;-77
2022/08/14 08:41:01;;;;;;;4.37;4.17;;;27.20;50.90;;;;;;10559073;28;20251;-77
2022/08/14 08:46:08;;;;;;;4.70;4.30;;;27.70;50.10;;;;;;10547632;28;20254;-79
2022/08/14 08:51:21;;;;;;;4.13;3.93;;;28.10;48.80;;;;;;10555566;28;20202;-79
2022/08/14 08:56:34;;;;;;;3.90;3.77;;;28.30;49.00;;;;;;10567966;28;20215;-77
2022/08/14 09:01:37;;;;;;;3.80;3.60;;;28.20;48.60;;;;;;10541514;28;20215;-78
2022/08/14 09:06:44;;;;;;;4.60;4.40;;;28.10;47.10;;;;;;10555805;28;20233;-77
2022/08/14 09:11:46;;;;;;;4.87;4.57;;;28.00;48.50;;;;;;10526332;28;20294;-78
2022/08/14 09:16:50;;;;;;;4.30;4.10;;;27.90;47.50;;;;;;10547657;28;20238;-77
2022/08/14 09:21:52;;;;;;;4.30;4.10;;;27.80;49.20;;;;;;10529636;28;20214;-77
2022/08/14 09:26:54;;;;;;;5.33;5.13;;;27.80;49.10;;;;;;10553547;28;20238;-77
2022/08/14 09:32:03;;;;;;;5.53;5.23;;;27.90;49.70;;;;;;10534505;28;20195;-78
2022/08/14 09:37:22;;;;;;;4.80;4.60;;;28.00;50.60;;;;;;10572269;28;20230;-77
2022/08/14 09:42:47;;;;;;;4.60;4.30;;;28.50;49.20;;;;;;10549902;28;20203;-78
2022/08/14 09:47:52;;;;;;;5.77;4.67;;;28.90;48.80;;;;;;10575765;28;20195;-79
2022/08/14 09:52:57;;;;;;;5.03;4.73;;;29.30;48.50;;;;;;10566409;28;20291;-79
2022/08/14 09:58:11;;;;;;;5.20;4.90;;;29.70;47.40;;;;;;10579522;28;20203;-79
2022/08/14 10:03:26;;;;;;;5.00;4.80;;;30.10;45.60;;;;;;10594102;28;20230;-79
2022/08/14 10:08:39;;;;;;;5.60;5.30;;;30.30;46.80;;;;;;10596340;28;20666;-78
2022/08/14 10:13:41;;;;;;;4.27;4.07;;;30.60;45.80;;;;;;10591619;28;20223;-79
2022/08/14 10:18:50;;;;;;;5.10;4.80;;;30.90;44.90;;;;;;10591446;28;20276;-79
2022/08/14 10:23:53;;;;;;;4.73;4.53;;;30.90;44.60;;;;;;10592040;28;20222;-79
2022/08/14 10:29:09;;;;;;;5.20;5.00;;;30.50;45.60;;;;;;10563121;28;20191;-78
2022/08/14 10:34:18;;;;;;;4.63;4.43;;;30.20;45.80;;;;;;10581557;28;20210;-77
2022/08/14 10:39:22;;;;;;;5.50;5.20;;;29.80;46.10;;;;;;10572105;28;20533;-79
2022/08/14 10:44:31;;;;;;;4.63;4.43;;;29.40;45.80;;;;;;10576154;28;20251;-78
2022/08/14 10:49:36;;;;;;;5.90;5.43;;;29.10;46.50;;;;;;10558500;28;20191;-77
2022/08/14 10:54:40;;;;;;;5.50;5.20;;;28.80;46.70;;;;;;10548829;28;20219;-78
2022/08/14 10:59:44;;;;;;;5.10;4.83;;;28.70;47.40;;;;;;10564130;28;20930;-78
2022/08/14 11:05:03;;;;;;;5.50;5.20;;;28.50;47.90;;;;;;10560484;28;20728;-77
2022/08/14 11:10:08;;;;;;;4.90;4.70;;;28.40;47.00;;;;;;10575674;28;20202;-78
2022/08/14 11:15:11;;;;;;;6.33;5.73;;;28.30;47.00;;;;;;10552593;28;20423;-78
2022/08/14 11:20:17;;;;;;;5.10;4.90;;;28.30;46.60;;;;;;10578980;28;20291;-81
2022/08/14 11:25:22;;;;;;;5.47;5.07;;;28.20;46.00;;;;;;10561282;28;20303;-76
2022/08/14 11:30:27;;;;;;;5.50;5.20;;;28.10;46.60;;;;;;10573086;28;20191;-77
2022/08/14 11:35:31;;;;;;;5.07;4.77;;;28.00;47.20;;;;;;10569172;28;20210;-76
2022/08/14 11:40:34;;;;;;;5.03;4.73;;;28.00;47.80;;;;;;10559083;28;20204;-77
2022/08/14 11:45:39;;;;;;;6.37;6.07;;;28.00;47.30;;;;;;10539111;28;20233;-78
2022/08/14 11:50:43;;;;;;;5.47;5.20;;;28.00;47.40;;;;;;10573885;28;20208;-78
2022/08/14 11:55:45;;;;;;;5.40;5.10;;;28.00;46.30;;;;;;10569830;28;20245;-78
2022/08/14 12:00:48;;;;;;;4.80;4.50;;;28.00;47.40;;;;;;10575699;28;20282;-78
2022/08/14 12:05:52;;;;;;;5.23;4.93;;;27.90;48.70;;;;;;10577570;28;20362;-78
2022/08/14 12:10:57;;;;;;;4.67;4.37;;;27.90;47.30;;;;;;10570067;28;20260;-77
2022/08/14 12:16:02;;;;;;;5.40;5.10;;;27.90;45.50;;;;;;10552849;28;20216;-78
2022/08/14 12:21:16;;;;;;;4.73;4.43;;;28.10;44.70;;;;;;10565840;28;20202;-77
2022/08/14 12:26:19;;;;;;;5.13;4.83;;;28.10;45.00;;;;;;10535757;28;20579;-79
2022/08/14 12:31:22;;;;;;;4.90;4.70;;;28.10;45.00;;;;;;10571644;28;20234;-78
2022/08/14 12:36:29;;;;;;;5.00;4.77;;;28.00;46.60;;;;;;10565643;28;20208;-79
2022/08/14 12:41:34;;;;;;;4.80;4.50;;;28.10;43.80;;;;;;10569632;28;20534;-78
2022/08/14 12:46:39;;;;;;;5.10;4.80;;;28.20;44.10;;;;;;10593198;28;20310;-78
2022/08/14 12:51:43;;;;;;;4.40;4.20;;;28.20;44.20;;;;;;10584125;28;20222;-79
2022/08/14 12:56:46;;;;;;;3.90;3.70;;;28.20;44.70;;;;;;10589130;28;20278;-79
2022/08/14 13:01:56;;;;;;;4.87;4.57;;;28.20;45.90;;;;;;10566655;28;20211;-79
2022/08/14 13:07:06;;;;;;;5.77;5.20;;;28.20;44.20;;;;;;10584963;28;20558;-79
2022/08/14 13:12:11;;;;;;;4.07;3.87;;;28.10;44.40;;;;;;10572893;28;20196;-79
2022/08/14 13:17:13;;;;;;;4.10;3.90;;;28.10;44.00;;;;;;10596594;28;20311;-79
2022/08/14 13:22:19;;;;;;;4.57;4.37;;;28.10;42.90;;;;;;10565434;28;20221;-79
2022/08/14 13:27:23;;;;;;;4.10;3.80;;;28.10;43.00;;;;;;10487869;22;20228;-81
2022/08/14 13:32:26;;;;;;;4.83;3.90;;;28.00;45.50;;;;;;10505928;28;20203;-82
2022/08/14 13:37:30;;;;;;;4.60;4.40;;;28.00;44.10;;;;;;10508268;28;20675;-82
2022/08/14 13:42:32;;;;;;;4.27;4.07;;;28.00;45.20;;;;;;10490435;28;20774;-82
2022/08/14 13:47:34;;;;;;;3.77;3.57;;;28.00;43.10;;;;;;10505989;28;20681;-78
2022/08/14 13:52:43;;;;;;;4.17;3.97;;;28.00;44.60;;;;;;10502118;28;20292;-82
2022/08/14 13:57:46;;;;;;;3.77;3.57;;;28.00;43.30;;;;;;10472344;28;20197;-81
2022/08/14 14:02:48;;;;;;;4.37;4.17;;;28.00;44.90;;;;;;10482741;28;20590;-80
2022/08/14 14:07:53;;;;;;;3.97;3.77;;;28.10;44.60;;;;;;10505565;28;20618;-82
2022/08/14 14:12:55;;;;;;;3.30;3.20;;;28.00;45.50;;;;;;10482674;28;20208;-81
2022/08/14 14:18:02;;;;;;;3.77;3.60;;;27.90;44.30;;;;;;10483612;28;20565;-80
2022/08/14 14:23:09;;;;;;;3.83;3.73;;;27.90;46.30;;;;;;10502099;28;20208;-81
2022/08/14 14:28:15;;;;;;;4.30;4.10;;;27.90;44.30;;;;;;10485252;28;20226;-80
2022/08/14 14:33:18;;;;;;;5.20;4.90;;;28.00;43.30;;;;;;10505803;28;20274;-80
2022/08/14 14:38:23;;;;;;;4.90;4.60;;;28.10;42.80;;;;;;10465820;28;20196;-80
2022/08/14 14:43:27;;;;;;;4.23;4.03;;;28.20;43.20;;;;;;10483759;28;20598;-81
2022/08/14 14:48:30;;;;;;;4.60;4.30;;;28.40;41.90;;;;;;10469270;28;20350;-80
2022/08/14 14:53:34;;;;;;;3.90;3.70;;;28.40;44.30;;;;;;10502550;28;20213;-81
2022/08/14 14:58:37;;;;;;;5.00;4.50;;;28.30;45.10;;;;;;10505238;28;20242;-80
2022/08/14 15:03:42;;;;;;;4.30;4.10;;;28.30;42.60;;;;;;10511062;28;20701;-81
2022/08/14 15:08:45;;;;;;;4.70;4.50;;;28.30;43.20;;;;;;10485297;28;20201;-80
2022/08/14 15:13:47;;;;;;;3.90;3.70;;;28.40;42.40;;;;;;10504115;28;20228;-78
2022/08/14 15:18:50;;;;;;;4.77;4.57;;;28.50;42.60;;;;;;10498451;28;20204;-78
2022/08/14 15:23:53;;;;;;;4.70;4.50;;;28.40;45.00;;;;;;10458144;28;20225;-79
2022/08/14 15:28:55;;;;;;;4.63;4.43;;;28.30;45.50;;;;;;10496031;28;20204;-80
2022/08/14 15:34:13;;;;;;;4.93;4.73;;;28.20;45.70;;;;;;10501315;28;20692;-81
2022/08/14 15:39:17;;;;;;;4.47;4.27;;;28.10;45.20;;;;;;10504318;28;20219;-80
2022/08/14 15:44:19;;;;;;;4.53;4.30;;;28.10;46.40;;;;;;10487393;28;20224;-80
2022/08/14 15:49:23;;;;;;;4.93;4.67;;;28.10;45.50;;;;;;10497221;28;20252;-79
2022/08/14 15:54:26;;;;;;;4.40;4.20;;;28.20;46.10;;;;;;10514717;28;20237;-77
2022/08/14 16:01:18;;;;;;;5.53;5.20;;;28.20;45.20;;;;;;10477077;28;20246;-81
2022/08/14 16:04:52;;;;;;;4.90;4.60;;;28.30;45.80;;;;;;10474080;28;20259;-82
2022/08/14 16:09:56;;;;;;;5.00;4.20;;;28.30;46.00;;;;;;10467612;28;20204;-80
2022/08/14 16:14:59;;;;;;;4.77;4.50;;;28.30;42.50;;;;;;10475069;28;20312;-79
2022/08/14 16:20:02;;;;;;;4.93;4.63;;;28.30;45.10;;;;;;10494871;28;20197;-79
2022/08/14 16:25:07;;;;;;;4.90;4.70;;;28.20;45.90;;;;;;10464560;28;20224;-79
2022/08/14 16:30:13;;;;;;;4.57;4.27;;;28.10;48.30;;;;;;10480978;28;20270;-80
2022/08/14 16:35:16;;;;;;;4.23;4.03;;;28.00;47.90;;;;;;10491051;28;20943;-79
2022/08/14 16:40:23;;;;;;;5.00;4.50;;;27.90;48.70;;;;;;10452671;28;20208;-78
2022/08/14 16:45:26;;;;;;;4.73;4.53;;;27.90;51.30;;;;;;10483456;28;20227;-79
2022/08/14 16:50:28;;;;;;;9.27;4.80;;;27.80;43.10;;;;;;10472633;28;20254;-81
2022/08/14 16:55:32;;;;;;;4.87;4.57;;;27.90;47.80;;;;;;10488210;28;20299;-81
2022/08/14 17:00:36;;;;;;;4.43;4.23;;;27.80;46.30;;;;;;10467593;28;20706;-77
2022/08/14 17:05:40;;;;;;;4.20;3.90;;;27.80;46.80;;;;;;10478104;28;20229;-81
2022/08/14 17:11:04;;;;;;;4.47;4.27;;;27.70;48.10;;;;;;10449665;28;20295;-80
2022/08/14 17:16:13;;;;;;;4.70;4.40;;;27.60;44.80;;;;;;10490833;28;20637;-82
2022/08/14 17:21:22;;;;;;;4.80;4.50;;;27.70;46.80;;;;;;10490927;28;20193;-80
2022/08/14 17:26:35;;;;;;;4.53;4.33;;;27.70;46.30;;;;;;10445846;28;20220;-79
2022/08/14 17:31:40;;;;;;;4.43;4.20;;;27.60;47.30;;;;;;10466428;28;20211;-81
2022/08/14 17:36:47;;;;;;;3.77;3.57;;;27.50;47.60;;;;;;10460255;28;20504;-81
2022/08/14 17:41:55;;;;;;;4.23;4.03;;;27.40;47.30;;;;;;10504000;28;20203;-80
2022/08/14 17:46:59;;;;;;;4.43;4.23;;;27.30;47.20;;;;;;10481632;28;20251;-80
2022/08/14 17:52:07;;;;;;;4.63;4.37;;;27.20;48.00;;;;;;10480947;28;20204;-80
2022/08/14 17:57:13;;;;;;;4.73;4.43;;;27.10;47.70;;;;;;10496492;28;20221;-79
2022/08/14 18:02:18;;;;;;;4.20;4.00;;;27.00;47.30;;;;;;10491523;28;20200;-80
2022/08/14 18:07:22;;;;;;;5.03;4.83;;;26.90;47.60;;;;;;10459078;28;20662;-79
2022/08/14 18:12:34;;;;;;;4.63;4.40;;;26.80;47.20;;;;;;10486781;28;20204;-80
2022/08/14 18:17:39;;;;;;;4.90;4.70;;;26.70;47.70;;;;;;10479136;28;20221;-78
2022/08/14 18:22:41;;;;;;;5.10;4.87;;;26.70;49.20;;;;;;10465770;28;20684;-79
2022/08/14 18:27:49;;;;;;;4.73;4.53;;;26.60;51.40;;;;;;10472850;28;20270;-80
2022/08/14 18:32:52;;;;;;;4.63;4.23;;;26.50;47.40;;;;;;10489994;28;20204;-79
2022/08/14 18:38:15;;;;;;;4.83;4.63;;;26.60;45.20;;;;;;10488111;28;20272;-79
2022/08/14 18:43:41;;;;;;;4.20;4.00;;;26.60;46.80;;;;;;10470526;28;20228;-80
2022/08/14 18:48:44;;;;;;;4.63;4.33;;;26.60;46.90;;;;;;10492391;28;20204;-80
2022/08/14 18:53:58;;;;;;;5.83;5.40;;;26.50;47.80;;;;;;10498131;28;20225;-80
2022/08/14 18:59:02;;;;;;;5.00;4.50;;;26.40;47.50;;;;;;10483142;28;20624;-81
2022/08/14 19:04:04;;;;;;;4.53;4.33;;;26.40;48.40;;;;;;10470619;28;20232;-80
2022/08/14 19:09:07;;;;;;;4.10;3.90;;;26.30;47.90;;;;;;10494721;28;20235;-80
2022/08/14 19:14:14;;;;;;;4.10;3.90;;;26.30;48.60;;;;;;10488615;28;20220;-79
2022/08/14 19:19:16;;;;;;;5.10;4.10;;;26.30;48.90;;;;;;10472879;28;20610;-79
2022/08/14 19:24:21;;;;;;;4.80;4.40;;;26.20;49.00;;;;;;10519044;22;20247;-79
2022/08/14 19:29:32;;;;;;;4.40;4.00;;;26.10;48.80;;;;;;10530565;28;20204;-79
2022/08/14 19:34:36;;;;;;;4.10;3.90;;;26.00;49.50;;;;;;10531260;28;20215;-79
2022/08/14 19:39:46;;;;;;;4.23;4.03;;;26.00;49.60;;;;;;10510443;28;20599;-79
2022/08/14 19:44:50;;;;;;;4.13;3.93;;;26.00;50.10;;;;;;10534289;28;20254;-79
2022/08/14 19:49:52;;;;;;;4.67;4.37;;;25.90;50.40;;;;;;10494352;28;20198;-79
2022/08/14 19:54:55;;;;;;;4.10;3.90;;;25.90;49.60;;;;;;10518982;28;20299;-79
2022/08/14 20:00:08;;;;;;;3.90;3.60;;;25.80;50.00;;;;;;10513972;28;20196;-79
2022/08/14 20:05:14;;;;;;;5.27;4.70;;;25.80;50.50;;;;;;10500495;28;20219;-79
2022/08/14 20:10:27;;;;;;;4.90;4.60;;;25.80;51.50;;;;;;10492760;28;20203;-79
2022/08/14 20:15:33;;;;;;;4.10;3.90;;;25.80;51.60;;;;;;10454598;28;20677;-79
2022/08/14 20:20:37;;;;;;;5.30;4.93;;;25.80;51.80;;;;;;10463196;28;20289;-79
2022/08/14 20:25:41;;;;;;;5.13;4.73;;;25.80;52.80;;;;;;10505219;28;20721;-79
2022/08/14 20:30:46;;;;;;;4.63;4.43;;;25.80;52.50;;;;;;10497818;28;20249;-79
2022/08/14 20:35:50;;;;;;;4.83;4.30;;;25.80;52.80;;;;;;10519602;28;20212;-79
2022/08/14 20:40:54;;;;;;;5.30;4.90;;;25.80;53.30;;;;;;10489083;28;20204;-79
2022/08/14 20:45:58;;;;;;;4.83;4.43;;;25.70;53.70;;;;;;10468181;28;20225;-79
2022/08/14 20:51:22;;;;;;;4.93;4.73;;;25.70;54.40;;;;;;10487535;28;20223;-79
2022/08/14 20:56:25;;;;;;;4.60;4.30;;;25.70;54.60;;;;;;10487814;28;20251;-79
2022/08/14 21:01:35;;;;;;;4.83;4.53;;;25.70;54.60;;;;;;10512461;28;20283;-79
2022/08/14 21:06:39;;;;;;;5.33;4.93;;;25.70;54.70;;;;;;10499620;28;20273;-79
2022/08/14 21:11:48;;;;;;;5.40;5.00;;;25.70;54.80;;;;;;10523166;28;20202;-79
2022/08/14 21:16:53;;;;;;;5.40;4.90;;;25.70;55.30;;;;;;10499785;28;20223;-79
2022/08/14 21:21:56;;;;;;;5.37;4.70;;;25.70;55.50;;;;;;10521161;28;20248;-79
2022/08/14 21:27:02;;;;;;;6.00;5.10;;;25.70;55.80;;;;;;10511777;28;20235;-79
2022/08/14 21:32:06;;;;;;;4.77;4.20;;;25.60;56.10;;;;;;10515870;28;20227;-79
2022/08/14 21:37:10;;;;;;;5.87;5.47;;;25.60;56.60;;;;;;10519592;28;20310;-79
2022/08/14 21:42:12;;;;;;;5.37;4.87;;;25.60;56.70;;;;;;10512189;28;20200;-79
2022/08/14 21:47:16;;;;;;;6.43;5.20;;;25.60;56.60;;;;;;10529150;28;20223;-79
2022/08/14 21:52:21;;;;;;;4.90;4.60;;;25.50;56.70;;;;;;10539024;28;20195;-79
2022/08/14 21:57:24;;;;;;;5.60;5.30;;;25.50;56.60;;;;;;10518462;28;20216;-79
2022/08/14 22:02:27;;;;;;;5.40;5.00;;;25.40;57.00;;;;;;10505592;28;20809;-79
2022/08/14 22:07:31;;;;;;;6.50;6.10;;;25.50;56.80;;;;;;10522134;28;20223;-79
2022/08/14 22:12:33;;;;;;;5.13;4.83;;;25.40;57.40;;;;;;10536607;28;20223;-79
2022/08/14 22:17:37;;;;;;;5.50;5.07;;;25.30;57.30;;;;;;10531072;28;20254;-79
2022/08/14 22:22:40;;;;;;;5.57;5.17;;;25.30;58.00;;;;;;10505887;28;20287;-79
2022/08/14 22:27:43;;;;;;;5.47;4.97;;;25.20;57.50;;;;;;10516466;28;20223;-79
2022/08/14 22:32:48;;;;;;;4.90;4.57;;;25.20;57.80;;;;;;10542810;28;20207;-79
2022/08/14 22:37:50;;;;;;;6.07;5.67;;;25.30;57.60;;;;;;10517716;28;20219;-80
2022/08/14 22:42:53;;;;;;;5.67;5.30;;;25.30;57.80;;;;;;10531902;28;20200;-79
2022/08/14 22:47:56;;;;;;;5.87;5.57;;;25.20;57.90;;;;;;10527752;28;20598;-79
2022/08/14 22:52:59;;;;;;;8.30;5.70;;;25.20;58.40;;;;;;10521872;28;20671;-80
2022/08/14 22:58:01;;;;;;;5.07;4.80;;;25.20;57.80;;;;;;10511144;28;20223;-79
2022/08/14 23:03:11;;;;;;;5.70;5.30;;;25.20;58.50;;;;;;10511540;28;20687;-79
2022/08/14 23:08:14;;;;;;;5.00;4.70;;;25.20;58.10;;;;;;10505965;28;20234;-80
2022/08/14 23:13:16;;;;;;;5.10;4.70;;;25.20;58.10;;;;;;10534266;28;20574;-79
2022/08/14 23:18:24;;;;;;;5.33;4.90;;;25.20;58.10;;;;;;10514851;28;20243;-80
2022/08/14 23:23:26;;;;;;;5.30;4.90;;;25.30;58.30;;;;;;10517365;28;20668;-80
2022/08/14 23:28:29;;;;;;;5.83;5.33;;;25.20;57.70;;;;;;10534625;28;20220;-79
2022/08/14 23:33:33;;;;;;;5.30;4.80;;;25.20;59.20;;;;;;10518585;28;20227;-79
2022/08/14 23:38:36;;;;;;;5.30;5.00;;;25.20;58.90;;;;;;10535244;28;20207;-80
2022/08/14 23:43:40;;;;;;;5.53;5.13;;;25.10;59.90;;;;;;10544725;28;20219;-79
2022/08/14 23:48:45;;;;;;;4.80;4.50;;;25.10;60.70;;;;;;10528278;28;20664;-79
2022/08/14 23:53:49;;;;;;;5.13;4.83;;;25.10;59.00;;;;;;10501932;28;20225;-80
2022/08/14 23:58:51;;;;;;;6.60;5.10;;;25.10;59.50;;;;;;10540093;28;20258;-79
